Flight Track Log - Related Links

Times and Time Zones

All times are in EDT time to prevent confusion due to time zone crossing. See the UAL4407 flight status page for this flight to view local times or setup timezone preferences in your user account.

Time Position Orientation Groundspeed Altitude Reporting Facility
EDT Latitude Longitude Course Direction KTS MPH feet Rate Location/Type
Fri 06:13:40 AM 42.9500 -71.4167 280° West 162 186 1,100  Level KA90
Fri 06:14:52 AM 43.0106 -71.3981 13° North 194 223 4,000 2,773 Climbing Boston Center
Fri 06:15:52 AM 43.0486 -71.4683 307° West 195 224 7,200 3,000 Climbing Boston Center
Fri 06:16:00 AM 42.9573 -71.7081 280° West  Level FlightAware Approximate
Fri 06:16:52 AM 43.0619 -71.5564 282° West 229 264 10,000  Level Boston Center
Fri 06:17:00 AM 42.9668 -71.8013 280° West  Level FlightAware Approximate
Fri 06:17:52 AM 43.0708 -71.6700 276° West 282 325 11,100  Level Boston Center
Fri 06:18:00 AM 42.9785 -71.8943 280° West  Level FlightAware Approximate
Fri 06:18:52 AM 43.0800 -71.7919 276° West 318 366 13,500  Level Boston Center
Fri 06:19:52 AM 43.0892 -71.9169 276° West 333 383 15,900 2,050 Climbing Boston Center
Fri 06:20:52 AM 43.0978 -72.0419 275° West 333 383 17,600 1,450 Climbing Boston Center
Fri 06:21:52 AM 43.1067 -72.1669 276° West 333 383 18,800 1,900 Climbing Boston Center
Fri 06:22:52 AM 43.1194 -72.2922 278° West 333 383 21,400 1,600 Climbing Boston Center
Fri 06:23:52 AM 43.1339 -72.4172 279° West 333 383 22,000 300 Climbing Boston Center
Fri 06:24:52 AM 43.1028 -72.5567 253° West 358 412 22,000  Level Boston Center
Fri 06:25:52 AM 43.0608 -72.6758 244° Southwest 401 461 22,000  Level Boston Center
Fri 06:26:52 AM 43.0231 -72.8150 250° West 396 456 22,000  Level Boston Center
Fri 06:27:52 AM 42.9850 -72.9539 250° West 396 456 22,000  Level Boston Center
Fri 06:28:52 AM 42.9467 -73.1039 251° West 391 450 22,000 -300 Level Boston Center
Fri 06:29:52 AM 42.9081 -73.2422 249° West 386 444 21,400 -750 Descending Boston Center
Fri 06:30:52 AM 42.8783 -73.3467 249° West 386 444 20,500 -1,150 Descending Boston Center
Fri 06:31:52 AM 42.8353 -73.4989 249° West 380 437 19,100 -1,200 Descending Boston Center
Fri 06:32:52 AM 42.7986 -73.6172 247° West 361 415 18,100 -1,300 Descending Boston Center
Fri 06:33:52 AM 42.7661 -73.7439 251° West 350 403 16,500 -1,050 Descending Boston Center
Fri 06:34:52 AM 42.6983 -73.8328 224° Southwest 350 403 16,000 -250 Descending Boston Center
Fri 06:35:52 AM 42.6039 -73.8758 199° South 341 392 16,000  Level Boston Center
Fri 06:36:52 AM 42.5075 -73.9103 195° South 352 405 16,000  Level Boston Center
Fri 06:37:52 AM 42.4194 -73.9503 199° South 368 423 16,000  Level Boston Center
Fri 06:38:52 AM 42.3167 -73.9956 198° South 368 423 16,000 50 Level Boston Center
Fri 06:39:52 AM 42.2372 -74.0300 198° South 352 405 16,100 50 Climbing Boston Center
Fri 06:40:52 AM 42.1469 -74.0697 198° South 347 399 16,100 -50 Level Boston Center
Fri 06:41:52 AM 42.0608 -74.1094 199° South 347 399 16,000 -900 Descending Boston Center
Fri 06:42:52 AM 41.9769 -74.1464 198° South 307 353 14,300 -1,650 Descending Boston Center
Fri 06:43:52 AM 41.9097 -74.1781 199° South 286 329 12,700 -1,650 Descending Boston Center
Fri 06:44:52 AM 41.8322 -74.2094 197° South 278 320 11,000 -1,650 Descending Boston Center
Fri 06:45:52 AM 41.7714 -74.2356 198° South 266 306 9,400 -1,450 Descending Boston Center
Fri 06:46:52 AM 41.6958 -74.2667 197° South 260 299 8,100 -850 Descending Boston Center
Fri 06:47:52 AM 41.6350 -74.2956 200° South 260 299 7,700 -500 Descending Boston Center
Fri 06:48:52 AM 41.5594 -74.3267 197° South 260 299 7,100 -259 Descending Boston Center
Fri 06:50:00 AM 41.4624 -74.3599 196° South  Level FlightAware Approximate
Fri 06:50:34 AM 41.4500 -74.3833 196° South 257 296 7,000  Level New York TRACON
Fri 06:51:34 AM 41.3667 -74.4000 189° South 268 308 7,000  Level New York TRACON
Fri 06:52:28 AM 41.3167 -74.4333 207° Southwest 260 299 7,000  Level New York TRACON
Fri 06:53:28 AM 41.2333 -74.4667 197° South 265 305 7,000  Level New York TRACON
Fri 06:54:28 AM 41.1667 -74.5000 201° Southwest 264 304 7,000 -100 Level New York TRACON
Fri 06:55:28 AM 41.1000 -74.5333 201° Southwest 267 307 6,800 -600 Descending New York TRACON
Fri 06:56:28 AM 41.0333 -74.5500 191° South 265 305 5,800 -900 Descending New York TRACON
Fri 06:57:28 AM 40.9500 -74.5500 180° South 269 310 5,000 -421 Descending New York TRACON
Fri 06:58:22 AM 40.9000 -74.5500 180° South 265 305 5,000  Level New York TRACON
Fri 06:59:22 AM 40.8167 -74.5500 180° South 269 310 5,000  Level New York TRACON
Fri 07:00:16 AM 40.7500 -74.5167 159° South 270 311 5,000  Level New York TRACON
Fri 07:01:16 AM 40.6833 -74.5000 169° South 270 311 5,000  Level New York TRACON
Fri 07:02:16 AM 40.6167 -74.4667 159° South 267 307 5,000 -316 Level New York TRACON
Fri 07:03:10 AM 40.5500 -74.4500 169° South 231 266 4,400 -526 Descending New York TRACON
Fri 07:04:10 AM 40.4833 -74.4167 159° South 228 262 4,000 -421 Descending New York TRACON
Fri 07:05:04 AM 40.4500 -74.3667 131° Southeast 243 280 3,600 -526 Descending New York TRACON
Fri 07:06:04 AM 40.4833 -74.3000 57° Northeast 225 259 3,000 -316 Descending New York TRACON
Fri 07:06:58 AM 40.5333 -74.2667 27° Northeast 212 244 3,000 -421 Level New York TRACON
Fri 07:07:58 AM 40.5833 -74.2333 27° Northeast 209 241 2,200 -800 Descending New York TRACON

Login

Don't have an account? Register now (free) for customized features, flight alerts, and more!